createdAt,value
2019-05-20T00:01:28.140Z,48.70
2019-05-20T00:03:57.019Z,48.70
2019-05-20T00:06:25.912Z,48.70
2019-05-20T00:08:54.721Z,48.80
2019-05-20T00:11:25.307Z,48.70
2019-05-20T00:13:54.019Z,48.80
2019-05-20T00:16:22.852Z,48.90
2019-05-20T00:18:52.754Z,49.00
2019-05-20T00:21:21.514Z,50.00
2019-05-20T00:23:51.394Z,49.00
2019-05-20T00:26:22.035Z,49.00
2019-05-20T00:28:50.868Z,49.30
2019-05-20T00:31:19.705Z,49.40
2019-05-20T00:33:48.491Z,49.30
2019-05-20T00:36:17.336Z,49.30
2019-05-20T00:38:47.744Z,49.50
2019-05-20T00:41:16.584Z,49.10
2019-05-20T00:43:47.177Z,49.60
2019-05-20T00:46:15.860Z,49.60
2019-05-20T00:48:44.636Z,49.00
2019-05-20T00:51:15.147Z,48.80
2019-05-20T00:53:45.833Z,49.00
2019-05-20T00:56:14.591Z,49.00
2019-05-20T00:58:45.210Z,49.10
2019-05-20T01:01:14.947Z,49.20
2019-05-20T01:03:42.786Z,49.20
2019-05-20T01:06:11.628Z,49.50
2019-05-20T01:08:41.547Z,49.30
2019-05-20T01:11:10.362Z,49.20
2019-05-20T01:13:39.184Z,49.70
2019-05-20T01:16:08.004Z,49.90
2019-05-20T01:18:36.936Z,50.60
2019-05-20T01:21:05.763Z,50.30
2019-05-20T01:23:34.595Z,50.50
2019-05-20T01:26:03.398Z,50.70
2019-05-20T01:28:32.317Z,50.80
2019-05-20T01:31:01.164Z,51.00
2019-05-20T01:33:29.990Z,51.10
2019-05-20T01:35:58.847Z,51.20
2019-05-20T01:38:28.697Z,51.20
2019-05-20T01:40:57.554Z,51.30
2019-05-20T01:43:26.382Z,51.30
2019-05-20T01:45:56.750Z,52.30
2019-05-20T01:48:25.561Z,51.70
2019-05-20T01:50:55.001Z,51.60
2019-05-20T01:53:23.884Z,51.60
2019-05-20T01:55:52.704Z,51.40
2019-05-20T01:58:23.271Z,51.80
2019-05-20T02:00:52.194Z,52.00
2019-05-20T02:03:31.062Z,52.20
2019-05-20T02:05:51.608Z,52.60
2019-05-20T02:08:20.403Z,52.70
2019-05-20T02:10:49.169Z,52.90
2019-05-20T02:13:18.064Z,53.00
2019-05-20T02:15:54.480Z,53.10
2019-05-20T02:18:23.371Z,53.10
2019-05-20T02:20:52.222Z,53.40
2019-05-20T02:23:21.041Z,53.60
2019-05-20T02:25:50.560Z,53.60
2019-05-20T02:28:19.335Z,53.80
2019-05-20T02:30:50.044Z,53.90
2019-05-20T02:33:18.666Z,53.80
2019-05-20T02:35:47.587Z,54.10
2019-05-20T02:38:16.401Z,54.30
2019-05-20T02:40:45.228Z,54.90
2019-05-20T02:43:14.144Z,54.80
2019-05-20T02:45:44.763Z,55.00
2019-05-20T02:48:15.380Z,54.40
2019-05-20T02:50:44.209Z,53.80
2019-05-20T02:53:13.032Z,54.50
2019-05-20T02:55:41.860Z,54.00
2019-05-20T02:58:10.775Z,54.10
2019-05-20T03:00:39.597Z,54.70
2019-05-20T03:03:08.347Z,54.90
2019-05-20T03:05:37.167Z,55.40
2019-05-20T03:08:06.025Z,56.00
2019-05-20T03:10:34.910Z,57.60
2019-05-20T03:13:03.684Z,59.00
2019-05-20T03:15:32.584Z,62.40
2019-05-20T03:18:03.308Z,63.10
2019-05-20T03:20:33.046Z,65.10
2019-05-20T03:23:00.962Z,65.60
2019-05-20T03:25:29.652Z,66.40
2019-05-20T03:27:58.478Z,66.20
2019-05-20T03:30:28.784Z,65.60
2019-05-20T03:32:59.504Z,63.80
2019-05-20T03:35:28.294Z,64.50
2019-05-20T03:37:59.016Z,62.80
2019-05-20T03:40:27.790Z,62.70
2019-05-20T03:42:56.652Z,63.00
2019-05-20T03:45:26.534Z,60.90
2019-05-20T03:47:55.460Z,60.60
2019-05-20T03:50:25.180Z,60.00
2019-05-20T03:52:53.230Z,60.00
2019-05-20T03:55:22.095Z,60.50
2019-05-20T03:57:50.920Z,59.10
2019-05-20T04:00:22.682Z,58.90
2019-05-20T04:02:51.517Z,59.30
2019-05-20T04:05:20.344Z,59.00
2019-05-20T04:07:49.123Z,58.70
2019-05-20T04:10:17.998Z,58.70
2019-05-20T04:12:46.890Z,58.40
2019-05-20T04:15:15.724Z,58.00
2019-05-20T04:17:44.474Z,57.90
2019-05-20T04:20:13.413Z,57.50
2019-05-20T04:22:42.344Z,57.10
2019-05-20T04:25:11.269Z,56.60
2019-05-20T04:27:41.235Z,56.80
2019-05-20T04:30:10.272Z,56.80
2019-05-20T04:32:39.112Z,56.40
2019-05-20T04:35:21.623Z,59.90
2019-05-20T04:37:38.462Z,61.30
2019-05-20T04:40:07.596Z,65.00
2019-05-20T04:42:36.723Z,70.70
2019-05-20T04:45:06.476Z,69.80
2019-05-20T04:57:06.327Z,72.10
2019-05-20T04:59:35.257Z,73.90
2019-05-20T05:02:04.020Z,73.40
2019-05-20T05:04:32.850Z,74.50
2019-05-20T05:07:01.777Z,75.40
2019-05-20T05:09:32.470Z,74.10
2019-05-20T05:12:01.214Z,72.90
2019-05-20T05:14:54.906Z,74.60
2019-05-20T05:17:23.688Z,74.30
2019-05-20T05:19:52.766Z,72.20
2019-05-20T05:22:21.768Z,72.90
2019-05-20T05:24:50.669Z,72.10
2019-05-20T05:27:19.530Z,71.60
2019-05-20T05:29:48.420Z,70.80
2019-05-20T05:32:18.821Z,67.50
2019-05-20T05:34:47.653Z,62.00
2019-05-20T05:37:17.460Z,55.90
2019-05-20T05:39:45.442Z,53.90
2019-05-20T05:42:14.223Z,52.90
2019-05-20T05:44:43.012Z,55.10
2019-05-20T05:47:11.796Z,56.40
2019-05-20T05:49:40.642Z,57.20
2019-05-20T05:52:10.981Z,59.20
2019-05-20T05:54:40.764Z,59.50
2019-05-20T05:57:08.724Z,59.20
2019-05-20T05:59:37.590Z,59.10
2019-05-20T06:02:06.498Z,58.20
2019-05-20T06:04:35.241Z,58.50
2019-05-20T06:07:04.068Z,58.00
2019-05-20T06:09:45.742Z,58.80
2019-05-20T06:12:14.599Z,58.90
2019-05-20T06:14:43.379Z,59.40
2019-05-20T06:17:12.211Z,60.20
2019-05-20T06:19:40.968Z,61.50
2019-05-20T06:22:09.802Z,60.30
2019-05-20T06:24:38.643Z,60.40
2019-05-20T06:27:07.478Z,59.90
2019-05-20T06:29:36.226Z,60.10
2019-05-20T06:32:05.076Z,60.30
2019-05-20T06:34:33.901Z,57.70
2019-05-20T06:37:10.573Z,55.60
2019-05-20T06:39:39.490Z,55.00
2019-05-20T06:42:10.102Z,54.10
2019-05-20T06:44:51.787Z,52.80
2019-05-20T06:47:09.396Z,53.60
2019-05-20T06:49:38.290Z,52.90
2019-05-20T06:52:07.118Z,52.90
2019-05-20T06:54:35.952Z,53.30
2019-05-20T06:57:04.888Z,52.90
2019-05-20T06:59:33.642Z,52.70
2019-05-20T07:02:02.485Z,53.00
2019-05-20T07:04:33.050Z,52.40
2019-05-20T07:07:01.813Z,51.80
2019-05-20T07:09:30.537Z,51.50
2019-05-20T07:11:59.431Z,52.00
2019-05-20T07:14:28.333Z,52.00
2019-05-20T07:16:58.409Z,52.60
2019-05-20T07:19:27.220Z,53.20
2019-05-20T07:21:55.985Z,53.50
2019-05-20T07:24:25.054Z,53.80
2019-05-20T07:26:53.779Z,53.20
2019-05-20T07:29:22.688Z,53.30
2019-05-20T07:31:51.506Z,51.80
2019-05-20T07:34:20.407Z,51.60
2019-05-20T07:37:02.547Z,51.00
2019-05-20T07:39:19.678Z,50.40
2019-05-20T07:41:48.435Z,50.00
2019-05-20T07:44:17.362Z,48.70
2019-05-20T07:46:48.098Z,47.90
2019-05-20T07:49:17.501Z,47.30
2019-05-20T07:51:46.802Z,46.90
2019-05-20T07:54:16.186Z,45.10
2019-05-20T07:56:47.512Z,45.00
2019-05-20T07:59:18.072Z,44.70
2019-05-20T08:01:46.958Z,45.50
2019-05-20T08:04:17.597Z,45.40
2019-05-20T08:06:46.486Z,46.80
2019-05-20T08:09:15.402Z,46.80
2019-05-20T08:11:44.264Z,46.20
2019-05-20T08:14:14.359Z,44.50
2019-05-20T08:16:43.244Z,44.20
2019-05-20T08:19:12.006Z,41.40
2019-05-20T08:21:40.847Z,39.50
2019-05-20T08:24:09.711Z,36.40
2019-05-20T08:26:38.778Z,36.00
2019-05-20T08:29:07.570Z,34.40
2019-05-20T08:31:38.713Z,33.20
2019-05-20T08:34:07.661Z,32.50
2019-05-20T08:36:36.545Z,33.80
2019-05-20T08:39:07.675Z,35.20
2019-05-20T08:41:37.337Z,35.80
2019-05-20T08:44:05.391Z,36.20
2019-05-20T08:46:36.062Z,36.40
2019-05-20T08:49:10.399Z,35.90
2019-05-20T08:51:35.566Z,35.90
2019-05-20T08:54:04.390Z,35.70
2019-05-20T08:56:33.297Z,36.40
2019-05-20T08:59:02.321Z,38.20
2019-05-20T09:01:31.191Z,37.60
2019-05-20T09:04:01.892Z,38.10
2019-05-20T09:06:30.811Z,37.40
2019-05-20T09:08:59.727Z,36.50
2019-05-20T09:11:28.610Z,36.30
2019-05-20T09:13:57.474Z,36.10
2019-05-20T09:16:26.243Z,36.50
2019-05-20T09:18:55.095Z,37.40
2019-05-20T09:21:23.867Z,37.10
2019-05-20T09:23:53.269Z,38.00
2019-05-20T09:26:22.125Z,38.20
2019-05-20T09:28:51.019Z,38.00
2019-05-20T09:31:19.799Z,38.70
2019-05-20T09:33:48.995Z,37.80
2019-05-20T09:36:17.807Z,37.90
2019-05-20T09:38:46.634Z,37.90
2019-05-20T09:41:15.430Z,38.80
2019-05-20T09:43:44.271Z,38.50
2019-05-20T09:46:13.173Z,38.80
2019-05-20T09:48:41.943Z,39.10
2019-05-20T09:51:10.718Z,38.70
2019-05-20T09:53:39.605Z,37.40
2019-05-20T09:56:08.477Z,37.20
2019-05-20T09:58:37.315Z,36.60
2019-05-20T10:01:06.278Z,36.50
2019-05-20T10:03:35.174Z,36.50
2019-05-20T10:06:04.059Z,36.10
2019-05-20T10:08:39.177Z,36.00
2019-05-20T10:11:03.503Z,36.00
2019-05-20T10:13:32.320Z,35.40
2019-05-20T10:16:01.144Z,35.70
2019-05-20T10:18:37.577Z,35.20
2019-05-20T10:21:00.607Z,35.30
2019-05-20T10:23:29.361Z,34.70
2019-05-20T10:25:58.308Z,33.90
2019-05-20T10:28:27.176Z,32.50
2019-05-20T10:30:55.970Z,32.00
2019-05-20T10:33:24.801Z,31.30
2019-05-20T10:35:53.742Z,28.80
2019-05-20T10:38:22.736Z,27.80
2019-05-20T10:40:53.362Z,28.50
2019-05-20T10:43:23.120Z,28.60
2019-05-20T10:45:51.961Z,29.00
2019-05-20T10:48:20.856Z,29.20
2019-05-20T10:50:49.635Z,28.90
2019-05-20T10:53:18.463Z,28.70
2019-05-20T10:55:49.024Z,29.10
2019-05-20T10:58:17.834Z,29.00
2019-05-20T11:01:01.935Z,29.20
2019-05-20T11:03:17.129Z,29.60
2019-05-20T11:05:46.024Z,28.60
2019-05-20T11:08:14.814Z,28.20
2019-05-20T11:10:43.631Z,28.40
2019-05-20T11:13:12.397Z,28.60
2019-05-20T11:15:44.457Z,28.60
2019-05-20T11:18:13.815Z,28.40
2019-05-20T11:20:42.648Z,28.90
2019-05-20T11:23:11.507Z,28.60
2019-05-20T11:25:40.341Z,28.50
2019-05-20T11:28:11.812Z,28.70
2019-05-20T11:30:39.668Z,28.30
2019-05-20T11:33:08.442Z,28.50
2019-05-20T11:35:38.422Z,28.90
2019-05-20T11:38:07.441Z,29.60
2019-05-20T11:40:36.317Z,28.90
2019-05-20T11:43:05.082Z,29.10
2019-05-20T11:45:33.918Z,29.70
2019-05-20T11:48:03.903Z,30.00
2019-05-20T11:50:32.852Z,30.10
2019-05-20T11:53:01.585Z,30.60
2019-05-20T11:55:30.500Z,30.80
2019-05-20T11:58:14.511Z,30.70
2019-05-20T12:00:29.796Z,30.70
2019-05-20T12:02:58.684Z,31.10
2019-05-20T12:05:27.703Z,29.90
2019-05-20T12:07:56.551Z,29.30
2019-05-20T12:10:25.380Z,29.30
2019-05-20T12:12:54.168Z,28.40
2019-05-20T12:15:22.953Z,27.60
2019-05-20T12:17:51.802Z,27.80
2019-05-20T12:20:20.848Z,27.80
2019-05-20T12:22:49.705Z,27.60
2019-05-20T12:25:19.547Z,27.80
2019-05-20T12:27:48.313Z,27.80
2019-05-20T12:30:18.264Z,27.70
2019-05-20T12:32:47.024Z,27.60
2019-05-20T12:35:15.857Z,27.80
2019-05-20T12:37:45.771Z,27.80
2019-05-20T12:40:15.214Z,28.00
2019-05-20T12:42:44.041Z,27.90
2019-05-20T12:45:12.950Z,27.90
2019-05-20T12:47:41.916Z,28.40
2019-05-20T12:50:11.069Z,28.30
2019-05-20T12:52:40.002Z,28.20
2019-05-20T12:55:10.093Z,28.30
2019-05-20T12:57:39.316Z,28.50
2019-05-20T13:00:12.441Z,28.50
2019-05-20T13:02:44.237Z,28.90
2019-05-20T13:05:13.869Z,29.50
2019-05-20T13:07:43.049Z,29.50
2019-05-20T13:10:27.979Z,29.50
2019-05-20T13:12:42.750Z,30.50
2019-05-20T13:15:11.963Z,29.40
2019-05-20T13:17:44.368Z,29.60
2019-05-20T13:20:11.858Z,29.70
2019-05-20T13:22:40.111Z,29.50
2019-05-20T13:25:09.808Z,29.90
2019-05-20T13:27:38.652Z,29.30
2019-05-20T13:30:08.818Z,29.40
2019-05-20T13:32:37.651Z,29.10
2019-05-20T13:35:07.997Z,29.20
2019-05-20T13:37:37.152Z,29.20
2019-05-20T13:40:06.877Z,29.10
2019-05-20T13:42:35.697Z,29.60
2019-05-20T13:45:07.841Z,29.20
2019-05-20T13:47:36.783Z,29.10
2019-05-20T13:50:09.289Z,29.70
2019-05-20T13:52:38.245Z,29.40
2019-05-20T13:55:08.077Z,29.30
2019-05-20T13:57:37.001Z,28.60
2019-05-20T14:00:07.829Z,28.50
2019-05-20T14:02:36.694Z,29.20
2019-05-20T14:05:06.787Z,28.80
2019-05-20T14:07:35.730Z,29.20
2019-05-20T14:10:07.230Z,28.90
2019-05-20T14:12:36.072Z,29.40
2019-05-20T14:15:05.838Z,29.60
2019-05-20T14:17:34.949Z,30.20
2019-05-20T14:20:04.355Z,30.60
2019-05-20T14:22:33.660Z,30.40
2019-05-20T14:25:02.623Z,30.70
2019-05-20T14:27:31.462Z,30.40
2019-05-20T14:30:00.375Z,30.40
2019-05-20T14:32:29.225Z,30.20
2019-05-20T14:34:58.180Z,30.00
2019-05-20T14:37:28.393Z,30.20
2019-05-20T14:39:57.778Z,30.00
2019-05-20T14:42:26.595Z,29.40
2019-05-20T14:44:55.427Z,29.70
2019-05-20T14:47:25.670Z,29.50
2019-05-20T14:49:55.492Z,29.20
2019-05-20T14:52:24.373Z,29.60
2019-05-20T14:54:53.112Z,29.70
2019-05-20T14:57:21.963Z,30.30
2019-05-20T14:59:50.788Z,30.90
2019-05-20T15:02:21.503Z,30.10
2019-05-20T15:04:50.270Z,30.20
2019-05-20T15:07:29.344Z,30.50
2019-05-20T15:09:51.478Z,30.30
2019-05-20T15:12:20.411Z,30.20
2019-05-20T15:14:49.234Z,30.00
2019-05-20T15:17:18.129Z,30.30
2019-05-20T15:19:46.890Z,30.80
2019-05-20T15:22:15.718Z,30.50
2019-05-20T15:24:44.470Z,30.20
2019-05-20T15:27:13.388Z,30.00
2019-05-20T15:29:42.263Z,30.60
2019-05-20T15:32:11.069Z,31.40
2019-05-20T15:34:39.841Z,30.60
2019-05-20T15:37:10.563Z,30.40
2019-05-20T15:39:39.260Z,30.70
2019-05-20T15:42:08.059Z,30.60
2019-05-20T15:44:37.927Z,30.10
2019-05-20T15:47:06.759Z,30.90
2019-05-20T15:49:36.686Z,30.00
2019-05-20T15:52:05.458Z,30.80
2019-05-20T15:54:34.299Z,30.80
2019-05-20T15:57:03.095Z,30.60
2019-05-20T15:59:44.934Z,30.90
2019-05-20T16:02:02.522Z,30.80
2019-05-20T16:04:31.402Z,30.70
2019-05-20T16:07:00.513Z,30.80
2019-05-20T16:09:29.427Z,31.20
2019-05-20T16:11:58.383Z,31.10
2019-05-20T16:14:27.273Z,31.10
2019-05-20T16:16:56.198Z,31.00
2019-05-20T16:19:25.031Z,30.90
2019-05-20T16:21:53.975Z,30.90
2019-05-20T16:24:25.407Z,30.80
2019-05-20T16:26:54.312Z,30.00
2019-05-20T16:29:23.116Z,30.00
2019-05-20T16:31:52.063Z,30.20
2019-05-20T16:34:22.705Z,30.00
2019-05-20T16:36:51.534Z,30.00
2019-05-20T16:39:20.369Z,30.20
2019-05-20T16:41:49.295Z,30.30
2019-05-20T16:44:18.126Z,30.20
2019-05-20T16:46:47.042Z,30.10
2019-05-20T16:49:15.932Z,30.20
2019-05-20T16:51:44.748Z,30.30
2019-05-20T16:54:13.567Z,30.90
2019-05-20T16:56:42.405Z,30.70
2019-05-20T16:59:11.318Z,31.10
2019-05-20T17:01:46.183Z,31.20
2019-05-20T17:04:13.781Z,31.80
2019-05-20T17:06:42.607Z,32.20
2019-05-20T17:09:11.374Z,31.80
2019-05-20T17:11:41.774Z,31.50
2019-05-20T17:14:10.902Z,32.90
2019-05-20T17:16:39.728Z,32.40
2019-05-20T17:19:08.654Z,32.40
2019-05-20T17:21:37.494Z,32.60
2019-05-20T17:24:06.255Z,32.50
2019-05-20T17:26:35.084Z,32.90
2019-05-20T17:29:04.035Z,33.20
2019-05-20T17:31:32.823Z,33.50
2019-05-20T17:34:01.717Z,33.90
2019-05-20T17:36:30.528Z,34.40
2019-05-20T17:39:00.436Z,34.70
2019-05-20T17:41:29.242Z,35.10
2019-05-20T17:44:03.763Z,35.80
2019-05-20T17:46:32.171Z,36.30
2019-05-20T17:49:00.641Z,37.00
2019-05-20T17:51:29.430Z,37.40
2019-05-20T17:53:58.160Z,37.90
2019-05-20T17:56:27.019Z,38.40
2019-05-20T17:59:07.015Z,38.90
2019-05-20T18:01:35.850Z,39.10
2019-05-20T18:04:04.884Z,39.60
2019-05-20T18:06:33.689Z,40.00
2019-05-20T18:09:02.560Z,40.40
2019-05-20T18:11:31.426Z,40.50
2019-05-20T18:14:00.228Z,40.90
2019-05-20T18:16:29.228Z,41.20
2019-05-20T18:18:58.006Z,41.50
2019-05-20T18:21:27.388Z,41.80
2019-05-20T18:23:56.170Z,42.10
2019-05-20T18:26:25.069Z,42.50
2019-05-20T18:28:53.905Z,42.80
2019-05-20T18:31:31.942Z,43.20
2019-05-20T18:33:53.410Z,43.50
2019-05-20T18:36:22.186Z,43.60
2019-05-20T18:38:51.006Z,44.10
2019-05-20T18:41:19.877Z,44.40
2019-05-20T18:43:48.763Z,44.70
2019-05-20T18:46:17.619Z,44.90
2019-05-20T18:48:46.461Z,45.10
2019-05-20T18:51:15.327Z,45.40
2019-05-20T18:53:46.070Z,45.50
2019-05-20T18:56:14.696Z,45.70
2019-05-20T18:58:44.678Z,45.80
2019-05-20T19:01:13.524Z,46.00
2019-05-20T19:03:42.503Z,46.10
2019-05-20T19:06:11.487Z,46.10
2019-05-20T19:08:41.310Z,46.30
2019-05-20T19:11:10.153Z,46.40
2019-05-20T19:13:38.992Z,46.50
2019-05-20T19:16:07.751Z,46.70
2019-05-20T19:18:36.508Z,46.80
2019-05-20T19:21:13.521Z,47.00
2019-05-20T19:23:44.281Z,47.00
2019-05-20T19:26:23.915Z,47.20
2019-05-20T19:28:43.200Z,47.10
2019-05-20T19:31:12.042Z,47.20
2019-05-20T19:33:41.004Z,47.30
2019-05-20T19:36:11.754Z,47.60
2019-05-20T19:38:40.340Z,47.60
2019-05-20T19:41:09.208Z,47.50
2019-05-20T19:43:38.043Z,47.70
2019-05-20T19:46:06.818Z,47.90
2019-05-20T19:48:35.652Z,48.00
2019-05-20T19:51:04.529Z,48.10
2019-05-20T19:53:33.293Z,48.20
2019-05-20T19:56:02.057Z,48.20
2019-05-20T19:58:30.887Z,48.60
2019-05-20T20:00:59.720Z,49.10
2019-05-20T20:03:28.494Z,49.70
2019-05-20T20:05:57.375Z,50.90
2019-05-20T20:08:26.146Z,51.40
2019-05-20T20:10:55.583Z,52.30
2019-05-20T20:13:24.439Z,55.30
